Terminal Aerodrome Forecast
Issued by NWS

Home | Current Version | Previous Version | Graphics & Text | Print | Product List | Glossary On
Versions: 1 2 3 4 5 6 7 8 9 10 11 12 13 14 15 16
000
FTUS43 KMPX 190100 AAA
TAFAXN
TAF AMD
KAXN 190134Z 1902/1924 13016G24KT P6SM SCT060 BKN100
     FM190700 15017G25KT P6SM VCSH OVC060
      TEMPO 1909/1912 5SM -TSRA BKN035CB OVC050
     FM191500 20015G22KT P6SM SCT035 BKN050
     FM192200 23013KT P6SM SCT100=

USA.gov is the U.S. government's official web portal to all federal, state and local government web resources and services.